Time;durP1;ratioP1;P1;durP2;ratioP2;P2;SDS_P1;SDS_P2;PMS_P1;PMS_P2;Temp;Humidity;BMP_temperature;BMP_pressure;BME280_temperature;BME280_humidity;BME280_pressure;Samples;Min_cycle;Max_cycle;Signal;HPM_P1;HPM_P2
2020/12/27 00:00:48;;;;;;;8.10;5.67;;;5.20;50.00;;;;;;5013030;28;20638;-41
2020/12/27 00:03:13;;;;;;;6.50;5.33;;;5.30;50.00;;;;;;5012378;28;20224;-41
2020/12/27 00:05:39;;;;;;;6.37;4.70;;;5.30;49.90;;;;;;5012993;28;20417;-41
2020/12/27 00:08:04;;;;;;;8.20;5.37;;;5.40;49.80;;;;;;5012485;28;21653;-41
2020/12/27 00:10:30;;;;;;;5.93;4.17;;;5.30;49.60;;;;;;5012592;28;20194;-41
2020/12/27 00:12:55;;;;;;;6.43;4.40;;;5.30;49.60;;;;;;5012191;28;20216;-41
2020/12/27 00:15:21;;;;;;;8.10;4.90;;;5.30;49.60;;;;;;5013113;28;20296;-41
2020/12/27 00:17:46;;;;;;;7.23;5.30;;;5.00;49.70;;;;;;5012406;28;20214;-41
2020/12/27 00:20:12;;;;;;;5.87;4.43;;;4.80;50.50;;;;;;5010710;28;20209;-41
2020/12/27 00:22:37;;;;;;;8.30;5.20;;;4.90;50.80;;;;;;5012220;28;20233;-41
2020/12/27 00:25:03;;;;;;;6.10;5.30;;;4.90;50.60;;;;;;5012742;28;20194;-41
2020/12/27 00:27:29;;;;;;;5.70;4.97;;;5.00;50.40;;;;;;5012327;28;20198;-41
2020/12/27 00:29:54;;;;;;;6.70;5.23;;;5.10;50.30;;;;;;5012066;28;20272;-41
2020/12/27 00:32:20;;;;;;;7.20;5.00;;;5.10;50.10;;;;;;5012300;28;20186;-41
2020/12/27 00:34:45;;;;;;;5.17;3.97;;;5.20;50.00;;;;;;5012676;28;21008;-41
2020/12/27 00:37:11;;;;;;;7.23;4.67;;;5.20;49.80;;;;;;5011855;28;20204;-41
2020/12/27 00:39:37;;;;;;;7.50;5.37;;;5.00;49.70;;;;;;5011947;28;20198;-41
2020/12/27 00:42:03;;;;;;;5.13;3.87;;;4.90;50.00;;;;;;5011887;28;20237;-41
2020/12/27 00:44:29;;;;;;;9.43;5.53;;;5.00;49.90;;;;;;5012344;28;20190;-41
2020/12/27 00:46:56;;;;;;;6.40;4.60;;;5.00;49.80;;;;;;5010079;28;20429;-41
2020/12/27 00:49:22;;;;;;;8.60;4.90;;;5.00;49.50;;;;;;5006564;28;20461;-41
2020/12/27 00:51:50;;;;;;;5.50;4.00;;;5.10;49.70;;;;;;5011879;28;20432;-41
2020/12/27 00:54:16;;;;;;;5.87;4.17;;;4.80;49.00;;;;;;5011218;28;21059;-42
2020/12/27 00:56:41;;;;;;;6.40;3.83;;;4.70;49.70;;;;;;5011732;28;20461;-41
2020/12/27 00:59:07;;;;;;;5.87;4.00;;;4.60;50.00;;;;;;5011748;28;20289;-41
2020/12/27 01:01:33;;;;;;;4.40;3.80;;;4.50;49.80;;;;;;5011480;28;20718;-41
2020/12/27 01:03:58;;;;;;;4.70;3.53;;;4.30;49.80;;;;;;5012265;28;20204;-41
2020/12/27 01:06:28;;;;;;;6.23;4.20;;;4.10;50.60;;;;;;5011573;28;20186;-41
2020/12/27 01:08:54;;;;;;;4.90;4.30;;;3.80;51.30;;;;;;5011999;28;20201;-41
2020/12/27 01:11:20;;;;;;;5.47;3.87;;;3.80;51.80;;;;;;5010427;28;20429;-41
2020/12/27 01:13:46;;;;;;;5.67;3.63;;;3.70;52.00;;;;;;5010621;28;20429;-41
2020/12/27 01:16:19;;;;;;;3.87;3.57;;;3.70;52.10;;;;;;5011736;28;20534;-41
2020/12/27 01:18:46;;;;;;;5.13;3.90;;;3.90;51.90;;;;;;5011523;28;20248;-41
2020/12/27 01:21:20;;;;;;;5.23;4.27;;;4.20;51.70;;;;;;5010952;28;20523;-41
2020/12/27 01:23:46;;;;;;;7.10;4.20;;;4.30;51.30;;;;;;5011312;28;20420;-41
2020/12/27 01:26:11;;;;;;;4.13;3.30;;;4.30;51.20;;;;;;5011570;28;20436;-41
2020/12/27 01:28:39;;;;;;;5.03;4.13;;;4.40;50.80;;;;;;5011380;28;20269;-41
2020/12/27 01:31:05;;;;;;;5.17;4.03;;;4.50;50.80;;;;;;5010797;28;20683;-41
2020/12/27 01:33:30;;;;;;;6.40;4.73;;;4.70;50.50;;;;;;5011307;28;20437;-41
2020/12/27 01:35:56;;;;;;;5.70;4.47;;;4.70;50.00;;;;;;5011580;28;20637;-41
2020/12/27 01:38:21;;;;;;;5.10;3.93;;;4.70;50.00;;;;;;5009569;28;20276;-42
2020/12/27 01:40:47;;;;;;;5.80;4.73;;;4.70;50.10;;;;;;5011086;28;20198;-41
2020/12/27 01:43:12;;;;;;;4.93;3.90;;;4.60;50.10;;;;;;5011172;28;20263;-41
2020/12/27 01:45:38;;;;;;;7.37;4.30;;;4.50;50.30;;;;;;5011264;28;20643;-41
2020/12/27 01:48:11;;;;;;;7.47;4.40;;;4.30;50.90;;;;;;5010695;28;20540;-41
2020/12/27 01:50:37;;;;;;;6.93;4.13;;;4.10;51.70;;;;;;5007250;28;20665;-41
2020/12/27 01:53:04;;;;;;;7.83;4.87;;;4.20;51.80;;;;;;5010850;28;20429;-41
2020/12/27 01:55:31;;;;;;;5.70;4.37;;;4.30;51.50;;;;;;5011189;28;20189;-41
2020/12/27 01:58:06;;;;;;;4.83;3.83;;;4.40;51.20;;;;;;5010940;28;20479;-41
2020/12/27 02:00:33;;;;;;;5.73;4.27;;;4.50;51.10;;;;;;5010545;28;20423;-41
2020/12/27 02:02:59;;;;;;;5.40;4.10;;;4.60;51.10;;;;;;5010728;28;20492;-41
2020/12/27 02:05:25;;;;;;;4.93;4.00;;;4.40;51.20;;;;;;5010157;28;20425;-41
2020/12/27 02:07:50;;;;;;;5.50;4.53;;;3.90;51.90;;;;;;5015085;28;20197;-41
2020/12/27 02:10:16;;;;;;;13.13;5.67;;;4.00;52.50;;;;;;5014874;28;20269;-41
2020/12/27 02:12:42;;;;;;;5.77;4.20;;;4.10;52.50;;;;;;5014716;28;20697;-41
2020/12/27 02:15:08;;;;;;;5.13;4.10;;;4.30;52.10;;;;;;5015303;28;20429;-41
2020/12/27 02:17:33;;;;;;;6.60;4.20;;;4.30;52.10;;;;;;5014520;28;20276;-41
2020/12/27 02:19:59;;;;;;;6.97;4.70;;;4.20;52.30;;;;;;5014797;28;20614;-41
2020/12/27 02:22:25;;;;;;;8.00;4.33;;;4.20;52.30;;;;;;5014434;28;20296;-41
2020/12/27 02:24:50;;;;;;;6.93;4.17;;;4.10;52.50;;;;;;5015158;28;20209;-41
2020/12/27 02:27:16;;;;;;;6.80;4.30;;;3.80;53.00;;;;;;5014616;28;20213;-41
2020/12/27 02:29:41;;;;;;;6.63;4.57;;;3.60;53.30;;;;;;5014440;28;20252;-41
2020/12/27 02:32:07;;;;;;;4.90;4.40;;;3.50;53.70;;;;;;5013052;28;20658;-41
2020/12/27 02:34:33;;;;;;;6.10;4.03;;;3.40;54.00;;;;;;5014823;28;20432;-41
2020/12/27 02:36:58;;;;;;;7.53;4.60;;;3.50;54.20;;;;;;5014291;28;20276;-41
2020/12/27 02:39:24;;;;;;;7.43;5.53;;;3.60;54.00;;;;;;5013286;28;20194;-41
2020/12/27 02:41:53;;;;;;;5.07;4.10;;;3.40;53.70;;;;;;5014245;28;20225;-41
2020/12/27 02:44:19;;;;;;;5.90;4.50;;;3.40;53.90;;;;;;5014681;28;20201;-41
2020/12/27 02:46:44;;;;;;;7.70;4.80;;;3.30;54.30;;;;;;5013905;28;20496;-41
2020/12/27 02:49:11;;;;;;;6.60;4.47;;;3.40;54.10;;;;;;5008834;28;20460;-41
2020/12/27 02:51:36;;;;;;;7.70;4.37;;;3.20;54.00;;;;;;5013774;28;20190;-41
2020/12/27 02:54:02;;;;;;;6.20;4.70;;;3.10;54.00;;;;;;5014523;28;20425;-41
2020/12/27 02:56:29;;;;;;;7.13;5.00;;;3.10;53.80;;;;;;5013785;28;20217;-41
2020/12/27 02:58:57;;;;;;;6.43;4.70;;;3.10;53.80;;;;;;5012358;28;20495;-41
2020/12/27 03:01:23;;;;;;;6.00;4.80;;;2.90;54.20;;;;;;5014166;28;20485;-41
2020/12/27 03:03:49;;;;;;;9.00;5.33;;;2.80;54.30;;;;;;5014361;28;20790;-41
2020/12/27 03:06:14;;;;;;;7.30;5.37;;;2.90;54.90;;;;;;5014321;28;20428;-41
2020/12/27 03:08:40;;;;;;;7.27;4.60;;;2.70;54.50;;;;;;5013552;28;20192;-41
2020/12/27 03:11:06;;;;;;;7.10;4.57;;;2.40;55.70;;;;;;5013850;28;20196;-41
2020/12/27 03:13:33;;;;;;;5.40;4.43;;;2.40;56.40;;;;;;5013267;28;20189;-41
2020/12/27 03:16:04;;;;;;;5.70;4.00;;;2.50;56.30;;;;;;5014262;28;20441;-41
2020/12/27 03:18:30;;;;;;;5.47;4.07;;;2.60;55.70;;;;;;5012617;28;20818;-41
2020/12/27 03:20:56;;;;;;;6.20;4.60;;;2.90;55.40;;;;;;5013403;28;20995;-41
2020/12/27 03:23:22;;;;;;;6.40;4.53;;;2.90;54.90;;;;;;5013472;28;20505;-42
2020/12/27 03:25:48;;;;;;;7.03;4.53;;;2.80;54.80;;;;;;5012354;28;20524;-41
2020/12/27 03:28:13;;;;;;;4.90;4.23;;;2.60;55.30;;;;;;5013198;28;20658;-41
2020/12/27 03:30:39;;;;;;;5.10;4.30;;;2.50;55.40;;;;;;5013161;28;20276;-41
2020/12/27 03:33:05;;;;;;;5.87;4.20;;;2.50;55.30;;;;;;5013076;28;20194;-41
2020/12/27 03:35:30;;;;;;;7.17;4.60;;;2.70;55.60;;;;;;5013796;28;20252;-41
2020/12/27 03:37:56;;;;;;;5.63;4.43;;;2.80;55.40;;;;;;5013105;28;20194;-41
2020/12/27 03:40:22;;;;;;;4.00;3.60;;;2.50;55.30;;;;;;5013484;28;20281;-41
2020/12/27 03:42:48;;;;;;;7.80;4.30;;;2.60;55.50;;;;;;5013230;28;20713;-41
2020/12/27 03:45:13;;;;;;;5.60;4.10;;;2.80;55.10;;;;;;5013556;28;20595;-41
2020/12/27 03:47:39;;;;;;;5.30;4.60;;;2.90;54.70;;;;;;5012748;28;20193;-41
2020/12/27 03:50:05;;;;;;;5.70;3.83;;;3.10;54.20;;;;;;5007447;28;20241;-41
2020/12/27 03:52:30;;;;;;;7.50;4.43;;;3.40;53.70;;;;;;5011070;28;20217;-41
2020/12/27 03:54:56;;;;;;;6.30;4.90;;;3.10;52.90;;;;;;5013468;28;20269;-41
2020/12/27 03:57:21;;;;;;;7.90;4.30;;;3.00;53.10;;;;;;5012808;28;20213;-41
2020/12/27 03:59:47;;;;;;;5.57;4.37;;;2.90;53.80;;;;;;5012811;28;20225;-41
2020/12/27 04:02:13;;;;;;;8.87;4.63;;;3.20;54.00;;;;;;5012646;28;20275;-41
2020/12/27 04:04:38;;;;;;;6.23;4.90;;;3.30;53.20;;;;;;5013296;28;20523;-41
2020/12/27 04:07:04;;;;;;;4.60;4.13;;;3.50;53.20;;;;;;5012550;28;20190;-41
2020/12/27 04:09:30;;;;;;;6.53;4.30;;;3.40;53.20;;;;;;5012640;28;21450;-41
2020/12/27 04:11:55;;;;;;;7.00;4.17;;;3.30;53.70;;;;;;5012361;28;20284;-41
2020/12/27 04:14:21;;;;;;;6.80;4.63;;;3.00;53.60;;;;;;5013237;28;20557;-41
2020/12/27 04:16:46;;;;;;;8.50;5.17;;;2.90;54.00;;;;;;5012460;28;20213;-41
2020/12/27 04:19:12;;;;;;;9.27;4.60;;;3.10;54.00;;;;;;5010821;28;20204;-41
2020/12/27 04:21:37;;;;;;;4.87;4.23;;;3.40;53.90;;;;;;5012211;28;20651;-41
2020/12/27 04:24:07;;;;;;;8.63;4.73;;;3.50;53.60;;;;;;5013026;28;20600;-41
2020/12/27 04:26:32;;;;;;;7.50;4.60;;;3.70;53.40;;;;;;5010759;28;20205;-41
2020/12/27 04:28:58;;;;;;;9.53;5.20;;;3.70;53.00;;;;;;5011534;28;20784;-41
2020/12/27 04:31:25;;;;;;;8.90;4.63;;;3.70;52.80;;;;;;5012207;28;20190;-41
2020/12/27 04:33:52;;;;;;;5.07;4.57;;;3.30;53.20;;;;;;5012771;28;20575;-41
2020/12/27 04:36:19;;;;;;;6.83;4.47;;;3.10;53.80;;;;;;5012395;28;20429;-41
2020/12/27 04:38:45;;;;;;;6.00;4.90;;;3.10;53.90;;;;;;5011809;28;20955;-41
2020/12/27 04:41:15;;;;;;;6.10;4.57;;;3.00;53.70;;;;;;5012313;28;20984;-41
2020/12/27 04:43:43;;;;;;;5.70;4.67;;;2.80;54.30;;;;;;5011867;28;20832;-41
2020/12/27 04:46:11;;;;;;;7.40;4.30;;;3.00;54.10;;;;;;5010493;28;20780;-41
2020/12/27 04:48:43;;;;;;;4.90;3.63;;;3.30;53.90;;;;;;5007233;28;20480;-41
2020/12/27 04:51:10;;;;;;;5.80;5.10;;;3.30;53.20;;;;;;4999225;28;20441;-41
2020/12/27 04:53:37;;;;;;;6.33;4.37;;;3.40;53.20;;;;;;5011687;28;20512;-41
2020/12/27 04:56:05;;;;;;;7.73;4.60;;;2.90;54.20;;;;;;5012382;28;20432;-41
2020/12/27 04:58:31;;;;;;;5.40;3.77;;;2.70;55.20;;;;;;5011431;28;20508;-41
2020/12/27 05:00:58;;;;;;;6.23;4.50;;;2.60;55.00;;;;;;5011886;28;20513;-41
2020/12/27 05:03:25;;;;;;;6.80;4.47;;;2.60;55.10;;;;;;5011536;28;20475;-41
2020/12/27 05:05:53;;;;;;;7.87;4.53;;;2.80;55.20;;;;;;5012350;28;20515;-41
2020/12/27 05:08:19;;;;;;;6.23;4.50;;;2.80;54.80;;;;;;5011831;28;20440;-41
2020/12/27 05:10:45;;;;;;;5.60;4.60;;;2.80;54.70;;;;;;5011719;28;20460;-42
2020/12/27 05:13:12;;;;;;;6.93;4.87;;;2.80;54.60;;;;;;5009753;28;20472;-41
2020/12/27 05:15:39;;;;;;;6.27;4.60;;;2.80;54.60;;;;;;5011885;28;20432;-41
2020/12/27 05:18:05;;;;;;;7.17;4.87;;;3.00;54.60;;;;;;5010827;28;20425;-41
2020/12/27 05:20:32;;;;;;;5.80;4.13;;;3.20;54.10;;;;;;5011429;28;20940;-41
2020/12/27 05:23:02;;;;;;;5.07;4.13;;;3.20;53.90;;;;;;5011122;28;20484;-41
2020/12/27 05:25:29;;;;;;;6.27;4.53;;;2.90;53.70;;;;;;5011767;28;20444;-42
2020/12/27 05:27:55;;;;;;;8.97;4.30;;;2.60;54.60;;;;;;5010816;28;21002;-41
2020/12/27 05:30:28;;;;;;;7.13;4.73;;;2.40;54.90;;;;;;5011631;28;20425;-41
2020/12/27 05:32:57;;;;;;;5.50;4.00;;;2.60;55.60;;;;;;5010937;28;20465;-41
2020/12/27 05:35:23;;;;;;;5.10;4.13;;;2.80;55.00;;;;;;5011313;28;20441;-41
2020/12/27 05:37:50;;;;;;;7.17;5.03;;;2.90;54.20;;;;;;5011067;28;20516;-41
2020/12/27 05:40:16;;;;;;;7.40;4.40;;;2.80;54.10;;;;;;5009272;28;20567;-41
2020/12/27 05:42:43;;;;;;;6.50;4.47;;;3.10;53.90;;;;;;5010901;28;20484;-43
2020/12/27 05:45:29;;;;;;;5.63;4.07;;;2.90;53.70;;;;;;5011567;28;20448;-41
2020/12/27 05:48:00;;;;;;;4.80;3.90;;;3.10;54.10;;;;;;5010186;28;20417;-41
2020/12/27 05:50:26;;;;;;;8.93;5.00;;;2.90;53.50;;;;;;5006009;28;20428;-41
2020/12/27 05:52:59;;;;;;;6.30;4.87;;;2.60;54.50;;;;;;5011109;28;20912;-41
2020/12/27 05:55:25;;;;;;;6.70;5.17;;;2.30;55.00;;;;;;5011341;28;21018;-41
2020/12/27 05:57:52;;;;;;;8.07;5.67;;;2.10;55.80;;;;;;5011032;28;20424;-41
2020/12/27 06:00:21;;;;;;;12.67;5.80;;;2.10;56.30;;;;;;5011166;28;20436;-41
2020/12/27 06:02:59;;;;;;;10.50;5.67;;;2.00;56.20;;;;;;5010954;28;20488;-41
2020/12/27 06:05:39;;;;;;;7.50;4.67;;;2.00;56.60;;;;;;5009688;28;20432;-41
2020/12/27 06:08:30;;;;;;;7.27;5.40;;;2.20;56.50;;;;;;5010567;28;20433;-41
2020/12/27 06:11:06;;;;;;;14.20;6.30;;;2.20;56.00;;;;;;5011192;28;20432;-41
2020/12/27 06:14:05;;;;;;;11.73;5.63;;;2.50;55.90;;;;;;5010544;28;20525;-41
2020/12/27 06:16:45;;;;;;;10.37;5.53;;;2.90;55.30;;;;;;5010458;28;20433;-42
2020/12/27 06:19:25;;;;;;;7.43;4.43;;;3.20;54.30;;;;;;5010435;28;20483;-41
2020/12/27 06:22:05;;;;;;;5.80;4.80;;;2.90;54.20;;;;;;5010627;28;20480;-41
2020/12/27 06:24:32;;;;;;;5.43;4.17;;;2.90;54.30;;;;;;5010971;28;20441;-41
2020/12/27 06:26:59;;;;;;;6.80;4.83;;;2.80;54.20;;;;;;5010640;28;20523;-41
2020/12/27 06:29:34;;;;;;;6.07;4.90;;;2.60;54.60;;;;;;5010559;28;20956;-41
2020/12/27 06:32:03;;;;;;;5.87;5.00;;;2.30;55.40;;;;;;5008934;28;20416;-41
2020/12/27 06:34:29;;;;;;;10.83;6.97;;;2.40;55.80;;;;;;5010905;28;20542;-41
2020/12/27 06:36:58;;;;;;;10.30;6.10;;;2.40;55.80;;;;;;5010348;28;20470;-41
2020/12/27 06:39:27;;;;;;;7.83;5.60;;;2.40;55.80;;;;;;5010276;28;20494;-41
2020/12/27 06:42:16;;;;;;;6.67;5.37;;;2.70;55.70;;;;;;5010606;28;20484;-41
2020/12/27 06:44:46;;;;;;;7.07;4.77;;;2.80;54.90;;;;;;5010852;28;20948;-41
2020/12/27 06:47:13;;;;;;;8.33;5.40;;;2.60;54.80;;;;;;5010305;28;20437;-41
2020/12/27 06:49:39;;;;;;;5.67;4.47;;;2.70;54.90;;;;;;5005111;28;20461;-41
2020/12/27 06:52:32;;;;;;;6.50;5.40;;;2.80;54.80;;;;;;5010249;28;20447;-41
2020/12/27 06:54:57;;;;;;;11.03;5.20;;;2.70;54.60;;;;;;5013479;28;20455;-41
2020/12/27 06:57:45;;;;;;;7.93;5.20;;;2.70;54.60;;;;;;5013858;28;20417;-41
2020/12/27 07:00:27;;;;;;;7.33;5.37;;;2.80;54.80;;;;;;5012380;28;20198;-41
2020/12/27 07:03:10;;;;;;;5.73;5.10;;;2.70;55.00;;;;;;5013764;28;20540;-41
2020/12/27 07:05:40;;;;;;;7.80;5.50;;;2.90;54.90;;;;;;5014175;28;20460;-41
2020/12/27 07:08:10;;;;;;;7.63;5.57;;;3.20;54.30;;;;;;5013563;28;20515;-41
2020/12/27 07:10:39;;;;;;;8.23;5.30;;;3.20;53.80;;;;;;5013586;28;20921;-41
2020/12/27 07:13:10;;;;;;;6.97;5.53;;;3.10;53.50;;;;;;5013759;28;20457;-41
2020/12/27 07:15:45;;;;;;;6.53;5.37;;;3.10;53.40;;;;;;5013827;28;20475;-41
2020/12/27 07:18:10;;;;;;;7.23;5.30;;;3.10;53.60;;;;;;5013793;28;20458;-41
2020/12/27 07:20:43;;;;;;;6.67;5.40;;;3.30;53.40;;;;;;5013922;28;21054;-41
2020/12/27 07:23:16;;;;;;;7.30;5.30;;;3.10;53.00;;;;;;5013422;28;20286;-41
2020/12/27 07:25:42;;;;;;;7.50;6.00;;;3.00;53.20;;;;;;5012260;28;21136;-41
2020/12/27 07:28:09;;;;;;;7.90;5.33;;;3.00;53.50;;;;;;5013359;28;20440;-41
2020/12/27 07:30:35;;;;;;;7.57;5.60;;;2.90;53.40;;;;;;5013436;28;20866;-41
2020/12/27 07:33:08;;;;;;;6.47;4.87;;;2.90;54.10;;;;;;5013041;28;20494;-41
2020/12/27 07:35:35;;;;;;;6.30;5.70;;;3.00;54.10;;;;;;5013955;28;20508;-41
2020/12/27 07:38:02;;;;;;;7.07;5.57;;;3.30;53.40;;;;;;5012869;28;20508;-41
2020/12/27 07:40:31;;;;;;;7.50;5.50;;;3.30;53.10;;;;;;5013248;28;20433;-41
2020/12/27 07:42:58;;;;;;;7.83;5.97;;;3.30;53.10;;;;;;5012856;28;20492;-41
2020/12/27 07:45:23;;;;;;;6.03;5.30;;;3.20;53.60;;;;;;5013470;28;20528;-41
2020/12/27 07:47:49;;;;;;;10.67;7.30;;;3.00;53.80;;;;;;5012689;28;20442;-41
2020/12/27 07:50:16;;;;;;;11.70;8.07;;;3.20;54.00;;;;;;5008135;28;20190;-42
2020/12/27 07:52:52;;;;;;;9.27;7.17;;;3.40;53.80;;;;;;5011267;28;20206;-41
2020/12/27 07:55:22;;;;;;;8.37;6.43;;;3.40;53.40;;;;;;5013469;28;20986;-41
2020/12/27 07:57:47;;;;;;;11.43;6.80;;;3.50;53.50;;;;;;5012651;28;20907;-41
2020/12/27 08:00:14;;;;;;;7.57;5.97;;;3.70;53.40;;;;;;5012822;28;20492;-41
2020/12/27 08:02:43;;;;;;;8.60;6.73;;;3.60;53.20;;;;;;5012865;28;20520;-41
2020/12/27 08:05:12;;;;;;;9.30;7.30;;;3.60;53.40;;;;;;5012619;28;20196;-41
2020/12/27 08:07:39;;;;;;;8.17;6.43;;;3.80;53.30;;;;;;5012472;28;20972;-41
2020/12/27 08:10:23;;;;;;;8.47;7.37;;;4.00;52.80;;;;;;5012639;28;20456;-41
2020/12/27 08:13:03;;;;;;;6.50;5.73;;;4.10;52.40;;;;;;5012860;28;20785;-41
2020/12/27 08:15:30;;;;;;;9.23;6.80;;;4.20;52.10;;;;;;5013029;28;20431;-41
2020/12/27 08:18:00;;;;;;;6.70;5.47;;;4.20;51.90;;;;;;5012462;28;20852;-41
2020/12/27 08:20:27;;;;;;;8.27;6.57;;;4.20;52.00;;;;;;5010531;28;20437;-41
2020/12/27 08:23:06;;;;;;;11.40;6.00;;;4.00;52.00;;;;;;5012375;28;21141;-41
2020/12/27 08:25:34;;;;;;;8.80;6.80;;;3.90;52.20;;;;;;5012810;28;20433;-41
2020/12/27 08:28:03;;;;;;;7.87;5.77;;;3.80;52.70;;;;;;5012016;28;20425;-41
2020/12/27 08:30:28;;;;;;;7.27;6.00;;;3.90;52.70;;;;;;5012203;28;20951;-41
2020/12/27 08:33:15;;;;;;;7.53;6.00;;;4.00;52.60;;;;;;5012084;28;20429;-42
2020/12/27 08:35:43;;;;;;;7.57;5.27;;;3.70;53.20;;;;;;5012597;28;20205;-41
2020/12/27 08:38:51;;;;;;;9.50;5.80;;;3.80;53.50;;;;;;5011749;28;20431;-41
2020/12/27 08:41:23;;;;;;;6.80;5.90;;;3.50;52.90;;;;;;5007483;28;20481;-41
2020/12/27 08:43:48;;;;;;;9.47;5.83;;;3.30;53.90;;;;;;5012212;28;20798;-41
2020/12/27 08:46:18;;;;;;;7.97;5.90;;;3.10;54.50;;;;;;5010622;28;20425;-41
2020/12/27 08:48:54;;;;;;;7.30;5.90;;;3.00;54.50;;;;;;5005244;28;20269;-41
2020/12/27 08:51:21;;;;;;;7.70;5.63;;;3.10;55.20;;;;;;5012768;28;20484;-41
2020/12/27 08:53:47;;;;;;;9.80;6.50;;;3.40;55.00;;;;;;5012002;28;20524;-41
2020/12/27 08:56:14;;;;;;;8.13;5.50;;;3.80;54.40;;;;;;5012295;28;20474;-41
2020/12/27 08:58:53;;;;;;;8.37;5.70;;;4.10;54.30;;;;;;5011362;28;20457;-41
2020/12/27 09:01:24;;;;;;;6.87;5.30;;;4.10;52.80;;;;;;5012265;28;20480;-41
2020/12/27 09:03:50;;;;;;;8.17;5.63;;;4.10;52.80;;;;;;5011973;28;20425;-41
2020/12/27 09:06:16;;;;;;;6.67;5.63;;;4.00;52.50;;;;;;5012089;28;20440;-41
2020/12/27 09:08:42;;;;;;;7.23;5.47;;;4.00;53.10;;;;;;5011026;28;20189;-41
2020/12/27 09:11:07;;;;;;;8.80;6.30;;;3.90;53.10;;;;;;5011829;28;20466;-41
2020/12/27 09:13:37;;;;;;;7.87;5.97;;;3.80;53.90;;;;;;5009760;28;20799;-41
2020/12/27 09:16:03;;;;;;;11.20;5.87;;;3.80;53.50;;;;;;5011097;28;20193;-41
2020/12/27 09:18:31;;;;;;;7.63;5.77;;;3.50;54.10;;;;;;5010773;28;20444;-41
2020/12/27 09:20:58;;;;;;;8.23;5.30;;;3.20;55.10;;;;;;5011667;28;20445;-41
2020/12/27 09:23:24;;;;;;;6.57;4.80;;;3.20;54.80;;;;;;5011038;28;20425;-41
2020/12/27 09:26:06;;;;;;;5.30;4.00;;;3.40;54.30;;;;;;5012191;28;20464;-41
2020/12/27 09:28:34;;;;;;;6.87;5.10;;;3.40;53.10;;;;;;5011114;28;20196;-41
2020/12/27 09:31:08;;;;;;;6.40;5.10;;;3.40;53.30;;;;;;5010496;28;20424;-41
2020/12/27 09:33:37;;;;;;;6.87;4.63;;;3.60;53.10;;;;;;5011073;28;20816;-41
2020/12/27 09:36:07;;;;;;;5.30;4.80;;;3.50;51.70;;;;;;5011113;28;20443;-41
2020/12/27 09:38:41;;;;;;;8.17;4.10;;;3.80;52.00;;;;;;5008975;28;20947;-41
2020/12/27 09:41:11;;;;;;;6.40;4.43;;;4.10;51.00;;;;;;5011235;28;20437;-41
2020/12/27 09:43:46;;;;;;;5.13;4.10;;;4.40;50.20;;;;;;5010886;28;20444;-41
2020/12/27 09:46:12;;;;;;;10.77;4.03;;;4.40;48.20;;;;;;5011309;28;20439;-41
2020/12/27 09:48:38;;;;;;;6.87;4.90;;;4.60;47.90;;;;;;5006161;28;20477;-42
2020/12/27 09:51:16;;;;;;;6.07;4.80;;;4.80;48.40;;;;;;5010864;28;20710;-41
2020/12/27 09:53:41;;;;;;;6.13;4.20;;;4.90;48.80;;;;;;5010849;28;20194;-41
2020/12/27 09:56:07;;;;;;;6.80;4.70;;;5.10;48.30;;;;;;5011108;28;20432;-42
2020/12/27 09:58:33;;;;;;;4.20;3.80;;;5.10;48.00;;;;;;5010316;28;20201;-41
2020/12/27 10:00:58;;;;;;;6.10;4.60;;;4.50;49.00;;;;;;5011316;28;20605;-41
2020/12/27 10:03:24;;;;;;;6.73;4.77;;;3.90;49.60;;;;;;5010909;28;20201;-41
2020/12/27 10:05:49;;;;;;;6.40;4.63;;;3.80;50.70;;;;;;5009478;28;20554;-41
2020/12/27 10:08:15;;;;;;;6.77;5.20;;;3.90;51.30;;;;;;5010423;28;20225;-42
2020/12/27 10:10:41;;;;;;;7.33;4.73;;;4.00;51.30;;;;;;5011372;28;20197;-41
2020/12/27 10:13:06;;;;;;;5.70;4.73;;;4.20;51.30;;;;;;5010583;28;20194;-41
2020/12/27 10:15:32;;;;;;;7.00;6.00;;;4.70;51.20;;;;;;5011210;28;20693;-41
2020/12/27 10:17:57;;;;;;;11.57;7.20;;;5.00;50.70;;;;;;5010557;28;20194;-41
2020/12/27 10:20:23;;;;;;;5.83;5.23;;;5.00;50.10;;;;;;5010967;28;20198;-41
2020/12/27 10:22:48;;;;;;;6.90;4.70;;;4.90;50.70;;;;;;5010785;28;20233;-41
2020/12/27 10:25:14;;;;;;;6.07;5.40;;;5.00;51.20;;;;;;5011200;28;20205;-41
2020/12/27 10:27:39;;;;;;;6.07;4.80;;;4.60;50.50;;;;;;5013029;28;20190;-41
2020/12/27 10:30:05;;;;;;;5.27;4.40;;;4.30;50.50;;;;;;5014396;28;20582;-41
2020/12/27 10:32:31;;;;;;;5.90;4.80;;;4.30;50.20;;;;;;5012828;28;20209;-41
2020/12/27 10:34:56;;;;;;;6.80;5.00;;;4.20;50.30;;;;;;5014643;28;20209;-41
2020/12/27 10:37:22;;;;;;;8.30;5.40;;;4.30;50.80;;;;;;5014507;28;20186;-41
2020/12/27 10:39:49;;;;;;;6.90;5.50;;;4.40;51.20;;;;;;5014365;28;20677;-41
2020/12/27 10:42:14;;;;;;;7.17;5.47;;;4.30;51.10;;;;;;5013996;28;20313;-41
2020/12/27 10:44:40;;;;;;;6.37;5.27;;;3.90;51.80;;;;;;5014375;28;20873;-41
2020/12/27 10:47:09;;;;;;;7.23;5.10;;;3.90;52.40;;;;;;5014234;28;20182;-41
2020/12/27 10:49:34;;;;;;;7.67;4.47;;;4.00;52.50;;;;;;5009115;28;20237;-41
2020/12/27 10:52:00;;;;;;;5.93;4.37;;;3.80;52.60;;;;;;5013962;28;20420;-41
2020/12/27 10:54:25;;;;;;;4.77;4.17;;;3.80;52.90;;;;;;5014448;28;20217;-41
2020/12/27 10:56:51;;;;;;;6.33;4.60;;;3.80;52.90;;;;;;5014357;28;20209;-41
2020/12/27 10:59:17;;;;;;;6.60;5.10;;;3.80;53.10;;;;;;5012376;28;20221;-41
2020/12/27 11:01:47;;;;;;;7.87;5.10;;;3.70;53.00;;;;;;5013896;28;20228;-41
2020/12/27 11:04:13;;;;;;;6.60;5.30;;;4.20;53.40;;;;;;5014337;28;20217;-41
2020/12/27 11:06:39;;;;;;;8.63;5.20;;;4.60;52.80;;;;;;5012589;28;20453;-41
2020/12/27 11:09:05;;;;;;;5.10;4.37;;;4.80;52.40;;;;;;5014011;28;20421;-41
2020/12/27 11:11:30;;;;;;;5.90;5.07;;;4.50;51.70;;;;;;5013900;28;20197;-41
2020/12/27 11:13:56;;;;;;;6.97;4.07;;;4.20;52.20;;;;;;5014054;28;20437;-41
2020/12/27 11:16:22;;;;;;;9.53;4.73;;;3.80;52.80;;;;;;5014107;28;20555;-41
2020/12/27 11:18:47;;;;;;;5.40;4.23;;;3.90;53.50;;;;;;5013542;28;20197;-41
2020/12/27 11:21:13;;;;;;;6.50;4.43;;;4.00;53.20;;;;;;5013803;28;20200;-41
2020/12/27 11:23:38;;;;;;;6.33;4.40;;;4.10;53.20;;;;;;5013565;28;20212;-41
2020/12/27 11:26:04;;;;;;;7.03;4.73;;;4.10;53.00;;;;;;5012243;28;20205;-41
2020/12/27 11:28:30;;;;;;;4.83;4.30;;;4.30;53.00;;;;;;5012925;28;20650;-41
2020/12/27 11:30:55;;;;;;;5.63;4.50;;;4.10;52.90;;;;;;5013629;28;20189;-41
2020/12/27 11:33:21;;;;;;;5.73;4.00;;;4.10;53.50;;;;;;5013774;28;20854;-41
2020/12/27 11:35:48;;;;;;;5.70;4.17;;;4.00;53.60;;;;;;5013989;28;20228;-41
2020/12/27 11:38:13;;;;;;;6.83;6.17;;;4.30;53.90;;;;;;5012233;28;20732;-41
2020/12/27 11:40:39;;;;;;;6.70;5.53;;;4.30;53.50;;;;;;5013677;28;20515;-41
2020/12/27 11:43:04;;;;;;;10.57;7.07;;;4.30;53.60;;;;;;5013121;28;20228;-41
2020/12/27 11:45:30;;;;;;;9.03;4.90;;;4.60;53.90;;;;;;5013533;28;20201;-41
2020/12/27 11:47:56;;;;;;;6.40;4.87;;;4.80;53.60;;;;;;5012334;28;20193;-41
2020/12/27 11:50:21;;;;;;;12.93;5.37;;;4.70;53.10;;;;;;5008701;28;20206;-41
2020/12/27 11:52:47;;;;;;;4.90;4.33;;;4.80;53.50;;;;;;5011310;28;20197;-41
2020/12/27 11:55:12;;;;;;;5.10;4.37;;;4.60;53.20;;;;;;5013400;28;20276;-41
2020/12/27 11:57:38;;;;;;;5.57;4.30;;;4.30;53.70;;;;;;5012920;28;20209;-41
2020/12/27 12:00:04;;;;;;;7.40;4.90;;;4.10;54.10;;;;;;5012733;28;20244;-41
2020/12/27 12:02:30;;;;;;;4.80;4.30;;;4.20;54.20;;;;;;5012708;28;20587;-41
2020/12/27 12:04:56;;;;;;;5.00;4.47;;;4.20;54.10;;;;;;5013211;28;20432;-41
2020/12/27 12:07:22;;;;;;;4.77;4.20;;;4.20;54.40;;;;;;5012827;28;20201;-41
2020/12/27 12:09:47;;;;;;;4.90;4.43;;;4.30;54.70;;;;;;5012733;28;20963;-41
2020/12/27 12:12:13;;;;;;;7.10;4.53;;;4.40;54.60;;;;;;5012586;28;20194;-41
2020/12/27 12:14:39;;;;;;;6.57;4.80;;;4.50;54.50;;;;;;5012944;28;20275;-42
2020/12/27 12:17:04;;;;;;;5.93;4.40;;;4.50;54.30;;;;;;5012249;28;20191;-41
2020/12/27 12:19:30;;;;;;;5.50;4.87;;;4.60;54.20;;;;;;5010941;28;20278;-41
2020/12/27 12:21:55;;;;;;;7.33;4.33;;;4.70;53.90;;;;;;5012281;28;20255;-41
2020/12/27 12:24:22;;;;;;;8.10;5.17;;;4.80;54.20;;;;;;5012885;28;20200;-41
2020/12/27 12:26:48;;;;;;;6.50;4.60;;;5.10;54.00;;;;;;5012317;28;20205;-41
2020/12/27 12:29:14;;;;;;;6.30;5.00;;;5.10;53.10;;;;;;5012278;28;20802;-42
2020/12/27 12:31:40;;;;;;;8.50;5.20;;;5.10;53.60;;;;;;5012417;28;20417;-41
2020/12/27 12:34:07;;;;;;;4.80;4.20;;;5.10;53.70;;;;;;5012416;28;20436;-41
2020/12/27 12:36:33;;;;;;;4.90;4.33;;;4.90;53.70;;;;;;5012249;28;20356;-41
2020/12/27 12:38:58;;;;;;;5.50;4.30;;;5.10;54.10;;;;;;5012122;28;20429;-41
2020/12/27 12:41:26;;;;;;;5.70;4.33;;;5.30;54.00;;;;;;5012042;28;20477;-41
2020/12/27 12:43:52;;;;;;;5.90;4.47;;;5.30;53.80;;;;;;5012770;28;20295;-41
2020/12/27 12:46:18;;;;;;;6.90;4.33;;;5.30;54.10;;;;;;5011044;28;21065;-41
2020/12/27 12:48:45;;;;;;;5.00;4.30;;;5.10;53.80;;;;;;5011663;28;20473;-41
2020/12/27 12:51:11;;;;;;;8.13;4.30;;;5.10;54.30;;;;;;5011289;28;20961;-41
2020/12/27 12:53:37;;;;;;;7.47;4.70;;;5.10;54.20;;;;;;5011602;28;20436;-41
2020/12/27 12:56:03;;;;;;;6.43;4.90;;;5.30;54.80;;;;;;5012407;28;20240;-41
2020/12/27 12:58:28;;;;;;;5.20;4.13;;;5.20;54.60;;;;;;5011557;28;20198;-42